Time;durP1;ratioP1;P1;durP2;ratioP2;P2;SDS_P1;SDS_P2;PMS_P1;PMS_P2;Temp;Humidity;BMP_temperature;BMP_pressure;BME280_temperature;BME280_humidity;BME280_pressure;Samples;Min_cycle;Max_cycle;Signal;HPM_P1;HPM_P2
2022/07/07 00:01:33;;;;;;;1.33;0.70;;;;;;;21.62;53.83;101980.34;5068685;28;20490;-57
2022/07/07 00:04:00;;;;;;;1.25;0.90;;;;;;;21.62;53.75;101984.88;5050315;28;20480;-58
2022/07/07 00:06:27;;;;;;;1.42;0.90;;;;;;;21.61;53.87;101973.28;5061354;28;20111;-57
2022/07/07 00:08:54;;;;;;;1.80;0.90;;;;;;;21.61;53.86;101975.13;5068994;28;20419;-57
2022/07/07 00:11:21;;;;;;;1.15;0.88;;;;;;;21.61;53.63;101972.44;5069689;28;20024;-58
2022/07/07 00:13:46;;;;;;;1.00;0.90;;;;;;;21.60;53.82;101971.59;5070748;28;20058;-57
2022/07/07 00:16:12;;;;;;;1.15;0.90;;;;;;;21.60;53.81;101976.97;5070303;28;20024;-58
2022/07/07 00:18:37;;;;;;;1.52;0.90;;;;;;;21.60;54.03;101966.25;5078001;28;20020;-62
2022/07/07 00:21:03;;;;;;;1.08;0.80;;;;;;;21.60;53.71;101966.25;5091070;28;20168;-58
2022/07/07 00:23:28;;;;;;;0.90;0.80;;;;;;;21.60;53.83;101968.91;5090943;28;20031;-58
2022/07/07 00:25:53;;;;;;;1.10;0.95;;;;;;;21.58;53.93;101963.72;5070791;28;20043;-57
2022/07/07 00:28:19;;;;;;;2.90;1.00;;;;;;;21.59;54.15;101959.22;5083333;28;20029;-57
2022/07/07 00:30:44;;;;;;;1.20;0.80;;;;;;;21.59;53.88;101953.84;5071085;28;20107;-58
2022/07/07 00:33:09;;;;;;;1.23;0.90;;;;;;;21.58;53.91;101944.13;5070212;28;20043;-61
2022/07/07 00:35:35;;;;;;;1.80;0.70;;;;;;;21.58;54.22;101947.66;5071987;28;20194;-60
2022/07/07 00:38:00;;;;;;;1.92;1.15;;;;;;;21.58;54.18;101936.09;5070613;28;20057;-57
2022/07/07 00:40:26;;;;;;;2.60;1.10;;;;;;;21.59;54.27;101927.06;5069762;28;20016;-57
2022/07/07 00:42:51;;;;;;;1.38;1.10;;;;;;;21.58;54.39;101936.09;5068956;28;20028;-58
2022/07/07 00:45:16;;;;;;;1.30;1.02;;;;;;;21.57;54.20;101923.69;5054538;28;20028;-57
2022/07/07 00:47:42;;;;;;;1.80;1.10;;;;;;;21.57;54.28;101929.91;5050661;28;20028;-57
2022/07/07 00:50:10;;;;;;;1.05;0.95;;;;;;;21.57;54.39;101934.41;5050274;28;20163;-58
2022/07/07 00:52:36;;;;;;;2.22;1.10;;;;;;;21.56;54.57;101927.38;5050250;28;20033;-61
2022/07/07 00:55:02;;;;;;;1.98;1.35;;;;;;;21.56;54.29;101916.66;5065705;28;20040;-57
2022/07/07 00:57:28;;;;;;;1.42;1.08;;;;;;;21.57;54.33;101929.06;5051286;28;20480;-61
2022/07/07 00:59:57;;;;;;;2.08;1.20;;;;;;;21.56;54.70;101912.16;5050538;28;20031;-57
2022/07/07 01:02:23;;;;;;;1.40;1.30;;;;;;;21.56;54.58;101911.31;5069359;28;20089;-58
2022/07/07 01:04:48;;;;;;;2.28;1.02;;;;;;;21.57;54.58;101923.69;5071081;28;20497;-57
2022/07/07 01:07:15;;;;;;;2.05;1.15;;;;;;;21.56;54.56;101911.31;5070536;28;20020;-57
2022/07/07 01:09:42;;;;;;;1.83;1.00;;;;;;;21.55;54.85;101918.50;5051677;28;20503;-57
2022/07/07 01:12:07;;;;;;;1.77;1.13;;;;;;;21.55;54.59;101926.53;5070975;28;20033;-61
2022/07/07 01:14:33;;;;;;;2.58;1.40;;;;;;;21.55;54.83;101912.31;5068393;28;20031;-61
2022/07/07 01:16:58;;;;;;;2.20;1.10;;;;;;;21.55;54.58;101907.78;5070092;28;20097;-62
2022/07/07 01:19:24;;;;;;;1.27;1.00;;;;;;;21.55;54.56;101912.31;5097245;28;20364;-57
2022/07/07 01:22:14;;;;;;;1.80;1.00;;;;;;;21.59;54.68;101911.00;5090980;28;20027;-61
2022/07/07 01:24:40;;;;;;;2.80;1.35;;;;;;;21.55;54.81;101906.94;5080105;28;20055;-58
2022/07/07 01:27:06;;;;;;;1.88;1.10;;;;;;;21.53;54.87;101906.28;5083848;28;20480;-58
2022/07/07 01:29:40;;;;;;;1.58;1.20;;;;;;;21.54;54.64;101913.31;5070131;28;20031;-57
2022/07/07 01:32:08;;;;;;;1.40;1.00;;;;;;;21.54;54.84;101914.16;5071860;28;20034;-61
2022/07/07 01:34:37;;;;;;;2.58;1.30;;;;;;;21.54;54.64;101911.47;5072709;28;20024;-57
2022/07/07 01:37:03;;;;;;;1.75;1.25;;;;;;;21.53;54.59;101900.91;5070020;28;20387;-61
2022/07/07 01:39:28;;;;;;;2.63;1.20;;;;;;;21.53;54.82;101893.72;5070382;28;20036;-57
2022/07/07 01:41:54;;;;;;;1.50;1.25;;;;;;;21.53;54.80;101890.22;5071847;28;20472;-57
2022/07/07 01:44:19;;;;;;;1.25;1.15;;;;;;;21.53;54.88;101896.41;5052390;28;20131;-58
2022/07/07 01:46:44;;;;;;;1.27;1.10;;;;;;;21.53;54.95;101882.16;5077364;28;20020;-58
2022/07/07 01:49:10;;;;;;;1.42;1.10;;;;;;;21.52;54.69;101892.03;5076621;28;20028;-58
2022/07/07 01:51:36;;;;;;;1.23;1.10;;;;;;;21.53;55.17;101885.69;5074769;28;20040;-57
2022/07/07 01:54:02;;;;;;;1.52;1.02;;;;;;;21.52;54.76;101883.16;5075906;28;20530;-58
2022/07/07 01:56:27;;;;;;;1.90;1.30;;;;;;;21.51;55.10;101882.34;5073837;28;20020;-58
2022/07/07 01:58:53;;;;;;;1.90;1.20;;;;;;;21.52;55.13;101877.81;5074272;28;20051;-57
2022/07/07 02:01:18;;;;;;;2.50;1.30;;;;;;;21.51;54.89;101885.00;5091986;28;20361;-60
2022/07/07 02:03:44;;;;;;;2.78;1.40;;;;;;;21.52;55.04;101885.84;5095709;28;20051;-58
2022/07/07 02:06:09;;;;;;;1.35;1.00;;;;;;;21.51;54.97;101876.13;5094048;28;20028;-58
2022/07/07 02:08:35;;;;;;;1.85;1.20;;;;;;;21.51;55.24;101886.84;5079249;28;20366;-57
2022/07/07 02:11:12;;;;;;;1.63;1.20;;;;;;;21.51;55.24;101887.69;5055241;28;20021;-57
2022/07/07 02:13:38;;;;;;;1.83;1.30;;;;;;;21.50;55.28;101875.28;5074879;28;20550;-58
2022/07/07 02:16:05;;;;;;;1.33;1.13;;;;;;;21.51;55.17;101882.34;5067662;28;20037;-57
2022/07/07 02:18:34;;;;;;;2.95;1.30;;;;;;;21.50;55.10;101886.00;5071422;28;20064;-62
2022/07/07 02:20:59;;;;;;;2.38;1.45;;;;;;;21.51;55.02;101878.81;5095549;28;20399;-57
2022/07/07 02:23:25;;;;;;;1.35;1.20;;;;;;;21.51;55.10;101863.59;5096015;28;20012;-58
2022/07/07 02:25:50;;;;;;;3.25;1.30;;;;;;;21.51;55.37;101871.63;5092619;28;20024;-58
2022/07/07 02:28:16;;;;;;;1.67;1.20;;;;;;;21.50;55.35;101869.09;5073353;28;20020;-61
2022/07/07 02:30:42;;;;;;;1.60;1.30;;;;;;;21.51;55.39;101870.78;5073818;28;20028;-62
2022/07/07 02:33:08;;;;;;;1.40;1.27;;;;;;;21.50;55.41;101861.91;5042553;28;20024;-58
2022/07/07 02:35:34;;;;;;;2.63;1.20;;;;;;;21.50;55.24;101875.28;5053065;28;20487;-59
2022/07/07 02:37:59;;;;;;;2.75;1.15;;;;;;;21.50;55.11;101866.44;5059544;28;20078;-58
2022/07/07 02:40:25;;;;;;;2.63;1.30;;;;;;;21.50;55.17;101863.75;5071736;28;20435;-57
2022/07/07 02:42:50;;;;;;;2.17;1.23;;;;;;;21.50;55.38;101859.22;5073643;28;20074;-62
2022/07/07 02:45:16;;;;;;;1.70;1.27;;;;;;;21.50;55.19;101877.13;5071481;28;20682;-58
2022/07/07 02:47:41;;;;;;;1.60;1.30;;;;;;;21.50;55.48;101866.44;5054256;28;20052;-57
2022/07/07 02:50:06;;;;;;;1.67;1.25;;;;;;;21.49;55.42;101867.44;5059197;28;20036;-60
2022/07/07 02:52:32;;;;;;;1.50;1.40;;;;;;;21.49;55.47;101860.22;5051868;28;20039;-61
2022/07/07 02:54:57;;;;;;;2.97;1.17;;;;;;;21.49;55.46;101854.88;5051630;28;20397;-58
2022/07/07 02:57:22;;;;;;;1.40;1.20;;;;;;;21.48;55.40;101855.88;5060489;28;20041;-58
2022/07/07 02:59:48;;;;;;;1.67;1.10;;;;;;;21.49;55.34;101862.06;5071836;28;20154;-58
2022/07/07 03:02:13;;;;;;;1.20;1.10;;;;;;;21.48;55.78;101871.09;5071540;28;20020;-60
2022/07/07 03:04:38;;;;;;;1.67;1.27;;;;;;;21.49;55.61;101860.22;5072144;28;20070;-58
2022/07/07 03:07:03;;;;;;;1.42;1.30;;;;;;;21.49;55.76;101867.44;5070421;28;20024;-58
2022/07/07 03:09:29;;;;;;;1.98;1.25;;;;;;;21.49;55.43;101870.09;5071756;28;20027;-58
2022/07/07 03:11:54;;;;;;;2.17;1.30;;;;;;;21.48;55.85;101869.25;5062956;28;20496;-61
2022/07/07 03:14:20;;;;;;;2.40;1.30;;;;;;;21.48;55.74;101877.28;5050367;28;20059;-57
2022/07/07 03:16:45;;;;;;;2.72;1.27;;;;;;;21.48;55.97;101881.81;5052445;28;20116;-60
2022/07/07 03:19:11;;;;;;;3.03;1.20;;;;;;;21.47;55.79;101880.97;5079513;28;20153;-58
2022/07/07 03:21:36;;;;;;;2.13;1.30;;;;;;;21.48;55.88;101882.66;5091034;28;20059;-57
2022/07/07 03:24:01;;;;;;;1.50;1.30;;;;;;;21.48;55.94;101876.47;5083812;28;20460;-58
2022/07/07 03:26:26;;;;;;;1.80;1.20;;;;;;;21.47;55.86;101882.81;5076791;28;20020;-58
2022/07/07 03:28:52;;;;;;;1.60;1.15;;;;;;;21.47;55.60;101880.13;5090978;28;20498;-61
2022/07/07 03:31:17;;;;;;;1.63;1.33;;;;;;;21.46;55.98;101883.81;5092467;28;20023;-58
2022/07/07 03:33:42;;;;;;;2.13;1.30;;;;;;;21.46;56.05;101894.53;5092985;28;20024;-61
2022/07/07 03:36:08;;;;;;;1.33;1.13;;;;;;;21.46;55.86;101890.00;5091344;28;20028;-61
2022/07/07 03:38:33;;;;;;;1.23;1.08;;;;;;;21.45;55.82;101899.03;5087271;28;20021;-61
2022/07/07 03:40:58;;;;;;;1.63;1.20;;;;;;;21.45;55.91;101904.41;5072099;28;20028;-60
2022/07/07 03:43:23;;;;;;;2.47;1.20;;;;;;;21.44;56.39;101905.41;5070419;28;20028;-61
2022/07/07 03:45:50;;;;;;;2.33;1.23;;;;;;;21.43;56.09;101889.50;5071910;28;20024;-58
2022/07/07 03:48:16;;;;;;;1.10;1.00;;;;;;;21.43;56.48;101893.00;5071259;28;20021;-62
2022/07/07 03:50:41;;;;;;;1.27;1.10;;;;;;;21.43;56.11;101884.13;5053302;28;20020;-62
2022/07/07 03:53:06;;;;;;;1.50;1.15;;;;;;;21.41;56.37;101886.13;5071407;28;20029;-60
2022/07/07 03:55:32;;;;;;;1.17;1.08;;;;;;;21.40;56.22;101890.66;5070991;28;20369;-58
2022/07/07 03:57:57;;;;;;;1.73;1.20;;;;;;;21.40;56.44;101885.28;5069866;28;20049;-61
2022/07/07 04:00:22;;;;;;;1.98;1.10;;;;;;;21.40;56.31;101884.44;5070986;28;20086;-57
2022/07/07 04:02:47;;;;;;;1.55;1.17;;;;;;;21.39;56.54;101880.09;5070049;28;20020;-57
2022/07/07 04:05:13;;;;;;;1.40;1.00;;;;;;;21.38;56.33;101883.78;5068909;28;20480;-58
2022/07/07 04:07:38;;;;;;;1.10;1.00;;;;;;;21.38;56.59;101883.78;5082048;28;20486;-61
2022/07/07 04:10:04;;;;;;;1.73;1.23;;;;;;;21.36;56.80;101883.94;5077670;28;20077;-61
2022/07/07 04:12:30;;;;;;;1.77;1.23;;;;;;;21.35;56.56;101876.91;5051560;28;20446;-57
2022/07/07 04:14:56;;;;;;;1.60;1.02;;;;;;;21.34;57.10;101869.03;5070974;28;20024;-58
2022/07/07 04:17:21;;;;;;;2.25;1.20;;;;;;;21.34;56.99;101861.84;5068878;28;20020;-57
2022/07/07 04:19:47;;;;;;;1.88;1.00;;;;;;;21.34;56.70;101863.66;5089337;28;20020;-58
2022/07/07 04:22:12;;;;;;;1.08;1.00;;;;;;;21.33;57.02;101862.00;5085461;28;20028;-61
2022/07/07 04:24:37;;;;;;;3.08;1.25;;;;;;;21.34;57.03;101863.66;5069306;28;20044;-61
2022/07/07 04:27:03;;;;;;;2.03;1.40;;;;;;;21.34;56.80;101858.31;5081409;28;20032;-57
2022/07/07 04:29:29;;;;;;;1.20;1.02;;;;;;;21.33;56.90;101865.50;5091275;28;20546;-58
2022/07/07 04:31:54;;;;;;;1.95;0.93;;;;;;;21.34;56.65;101866.34;5089749;28;20114;-57
2022/07/07 04:34:22;;;;;;;2.80;1.30;;;;;;;21.33;57.11;101875.38;5090954;28;20023;-56
2022/07/07 04:36:47;;;;;;;1.73;1.15;;;;;;;21.34;56.97;101863.66;5090986;28;20015;-57
2022/07/07 04:39:12;;;;;;;2.00;1.15;;;;;;;21.35;57.30;101870.72;5077939;28;20388;-56
2022/07/07 04:41:38;;;;;;;1.17;1.00;;;;;;;21.33;57.21;101880.72;5084234;28;20099;-59
2022/07/07 04:44:03;;;;;;;1.60;1.00;;;;;;;21.33;56.96;101894.13;5091216;28;20026;-56
2022/07/07 04:46:28;;;;;;;1.40;1.02;;;;;;;21.33;57.00;101894.13;5089824;28;20024;-57
2022/07/07 04:48:54;;;;;;;1.20;0.90;;;;;;;21.33;57.49;101894.97;5090430;28;20027;-60
2022/07/07 04:51:19;;;;;;;1.48;1.10;;;;;;;21.32;57.04;101903.16;5091278;28;20023;-56
2022/07/07 04:53:44;;;;;;;1.42;1.00;;;;;;;21.33;57.38;101904.84;5090667;28;20478;-56
2022/07/07 04:56:09;;;;;;;1.15;0.90;;;;;;;21.33;57.36;101907.50;5091162;28;20028;-56
2022/07/07 04:58:35;;;;;;;1.45;0.90;;;;;;;21.32;57.52;101911.19;5065273;28;20552;-57
2022/07/07 05:01:00;;;;;;;1.20;1.10;;;;;;;21.33;57.32;101910.19;5049715;28;20025;-57
2022/07/07 05:03:25;;;;;;;1.20;1.00;;;;;;;21.32;57.08;101905.81;5033604;28;20043;-56
2022/07/07 05:05:51;;;;;;;0.95;0.90;;;;;;;21.33;57.54;101910.19;5070550;28;20024;-60
2022/07/07 05:08:16;;;;;;;1.15;0.93;;;;;;;21.33;57.33;101908.34;5042314;28;20039;-57
2022/07/07 05:10:41;;;;;;;1.98;1.00;;;;;;;21.35;57.52;101913.53;5011151;28;20408;-56
2022/07/07 05:13:07;;;;;;;1.30;0.93;;;;;;;21.35;57.80;101913.53;5034475;28;20040;-55
2022/07/07 05:15:32;;;;;;;1.25;0.85;;;;;;;21.35;57.39;101919.75;5008346;28;20040;-55
2022/07/07 05:34:16;;;;;;;5.72;1.48;;;;;;;16.83;86.48;101944.81;6211245;22;1363466;-82
2022/07/07 07:46:00;;;;;;;10.18;2.08;;;;;;;18.60;70.14;102105.34;5643937;22;15058970;-92
2022/07/07 08:29:11;;;;;;;7.88;1.95;;;;;;;18.62;74.84;102140.75;6253288;22;20031;-87
2022/07/07 08:31:48;;;;;;;6.07;1.60;;;;;;;18.69;74.74;102135.72;6240852;23;20008;-82
2022/07/07 08:34:43;;;;;;;6.53;1.50;;;;;;;18.71;74.31;102142.59;6215330;23;20001;-82
2022/07/07 08:37:13;;;;;;;5.60;1.67;;;;;;;18.51;74.48;102146.16;6239350;23;20004;-86
2022/07/07 08:39:39;;;;;;;5.25;1.30;;;;;;;18.28;72.59;102144.59;6240740;23;20004;-89
2022/07/07 08:42:26;;;;;;;8.77;1.98;;;;;;;18.10;72.62;102157.69;6243076;23;20060;-87
2022/07/07 08:44:51;;;;;;;6.30;1.60;;;;;;;17.90;73.65;102148.72;6244152;23;20774;-84
2022/07/07 08:47:17;;;;;;;4.78;1.50;;;;;;;17.84;74.43;102151.91;6243126;23;20078;-85
2022/07/07 08:49:42;;;;;;;8.65;1.98;;;;;;;17.87;73.99;102162.28;6241748;23;20004;-88
2022/07/07 08:52:11;;;;;;;6.40;1.38;;;;;;;18.27;73.85;102150.91;6242100;23;20000;-87
2022/07/07 08:54:42;;;;;;;7.93;1.73;;;;;;;18.84;72.87;102150.38;6241364;23;20083;-83
2022/07/07 08:57:07;;;;;;;7.55;1.90;;;;;;;19.19;71.04;102155.22;6242237;23;20000;-86
2022/07/07 08:59:33;;;;;;;8.68;1.80;;;;;;;19.33;70.53;102162.88;6223977;23;20016;-84
2022/07/07 09:02:00;;;;;;;5.63;1.70;;;;;;;19.29;70.31;102150.78;6116561;23;20479;-85
2022/07/07 09:04:26;;;;;;;7.65;1.80;;;;;;;19.13;70.68;102171.78;6181140;23;20305;-82
2022/07/07 09:07:00;;;;;;;5.78;1.45;;;;;;;18.89;71.73;102174.00;6158741;23;280646;-82
2022/07/07 09:10:20;;;;;;;7.90;1.73;;;;;;;18.69;71.56;102181.88;6175656;23;20486;-82
2022/07/07 09:12:46;;;;;;;12.13;1.52;;;;;;;18.45;72.68;102181.34;6141338;23;20015;-82
2022/07/07 09:15:12;;;;;;;7.32;1.77;;;;;;;18.39;73.10;102174.69;6182715;23;20687;-86
2022/07/07 09:17:37;;;;;;;7.10;1.60;;;;;;;18.53;71.81;102178.00;6182652;23;20088;-82
2022/07/07 09:20:44;;;;;;;8.85;2.20;;;;;;;18.64;70.63;102186.78;6181000;23;20012;-87
2022/07/07 09:26:57;;;;;;;6.03;1.52;;;;;;;19.14;70.13;102183.31;6059863;23;20038;-86
2022/07/07 09:29:23;;;;;;;5.47;1.80;;;;;;;19.34;67.90;102185.06;6132089;23;20103;-84
2022/07/07 09:32:00;;;;;;;7.72;1.38;;;;;;;19.25;67.78;102193.91;6205281;23;20091;-84
2022/07/07 09:34:30;;;;;;;6.50;1.50;;;;;;;19.15;67.02;102196.50;6197491;23;97138;-85
2022/07/07 09:39:57;;;;;;;7.18;1.50;;;;;;;18.85;67.10;102199.25;6147577;23;20025;-85
2022/07/07 09:42:32;;;;;;;8.80;2.00;;;;;;;18.82;68.18;102216.34;6210892;23;20036;-85
2022/07/07 09:45:08;;;;;;;7.43;1.67;;;;;;;18.99;69.35;102210.38;6235292;23;20342;-85
2022/07/07 09:47:34;;;;;;;4.07;1.15;;;;;;;19.03;68.13;102213.63;6234701;23;20366;-85
2022/07/07 09:50:06;;;;;;;4.38;1.23;;;;;;;18.93;69.82;102223.41;6210688;23;20027;-85
2022/07/07 09:53:10;;;;;;;8.93;1.35;;;;;;;18.86;68.18;102227.59;6210952;23;19996;-85
2022/07/07 09:55:35;;;;;;;3.25;0.98;;;;;;;18.51;68.39;102239.44;6117846;23;20456;-84
2022/07/07 09:58:00;;;;;;;4.28;1.15;;;;;;;18.22;70.73;102249.91;6193713;23;20650;-88
2022/07/07 10:00:26;;;;;;;6.30;1.20;;;;;;;18.00;72.27;102250.81;6211445;23;20001;-85
2022/07/07 10:03:40;;;;;;;8.85;1.55;;;;;;;17.92;73.82;102258.63;6211693;23;20004;-85
2022/07/07 10:06:06;;;;;;;10.75;1.40;;;;;;;17.71;77.62;102261.22;6149944;23;20013;-86
2022/07/07 10:08:33;;;;;;;6.57;1.40;;;;;;;17.82;79.38;102260.34;6208184;23;20430;-81
2022/07/07 10:11:01;;;;;;;8.23;1.30;;;;;;;17.82;78.70;102258.53;6211299;23;20011;-82
2022/07/07 10:13:29;;;;;;;6.80;1.65;;;;;;;18.11;77.65;102266.78;6212482;23;20001;-86
2022/07/07 10:15:55;;;;;;;6.05;1.40;;;;;;;18.36;78.15;102264.72;6212082;23;20367;-86
2022/07/07 10:18:21;;;;;;;6.75;1.38;;;;;;;18.44;76.15;102270.25;6165073;23;20027;-84
2022/07/07 10:20:47;;;;;;;9.57;1.63;;;;;;;18.47;75.66;102270.84;6211755;23;20000;-81
2022/07/07 10:23:12;;;;;;;8.15;1.30;;;;;;;18.44;74.46;102264.94;6209584;23;20007;-81
2022/07/07 10:25:38;;;;;;;5.05;1.27;;;;;;;18.23;73.94;102278.22;6199718;23;78994;-80
2022/07/07 10:28:04;;;;;;;3.03;0.98;;;;;;;18.16;74.30;102269.91;6177615;23;419120;-81
2022/07/07 10:30:31;;;;;;;5.15;1.30;;;;;;;18.12;75.85;102280.94;6208509;23;20347;-81
2022/07/07 10:32:58;;;;;;;7.57;1.23;;;;;;;18.12;76.86;102288.94;6209722;23;20008;-81
2022/07/07 10:35:25;;;;;;;5.25;1.35;;;;;;;18.06;75.90;102286.78;6210740;23;20005;-81
2022/07/07 10:37:53;;;;;;;7.95;2.10;;;;;;;18.15;76.18;102294.00;6210877;23;20334;-81
2022/07/07 10:40:24;;;;;;;7.38;1.60;;;;;;;18.36;74.31;102288.69;6211008;23;20072;-83
2022/07/07 10:43:12;;;;;;;4.72;1.25;;;;;;;18.58;73.69;102293.06;6212735;23;20000;-84
2022/07/07 10:45:53;;;;;;;5.13;1.13;;;;;;;18.79;72.62;102293.94;6210200;23;20000;-85
2022/07/07 10:48:42;;;;;;;5.13;1.33;;;;;;;18.92;73.17;102299.91;6211937;23;20438;-82
2022/07/07 10:51:27;;;;;;;4.72;1.05;;;;;;;18.82;71.57;102307.03;6206510;23;20028;-81
2022/07/07 10:54:22;;;;;;;5.45;1.42;;;;;;;18.66;73.37;102315.47;6232976;23;20000;-80
2022/07/07 10:57:02;;;;;;;3.88;1.10;;;;;;;18.36;75.37;102323.34;6207984;23;20134;-81
2022/07/07 11:00:18;;;;;;;2.47;1.10;;;;;;;18.13;76.26;102314.59;6208454;23;20028;-82
2022/07/07 11:03:13;;;;;;;5.53;1.30;;;;;;;18.00;76.15;102330.72;6207985;23;20063;-82
2022/07/07 11:06:06;;;;;;;6.60;1.30;;;;;;;17.91;76.46;102325.31;6208434;23;20008;-82
2022/07/07 11:08:39;;;;;;;5.05;1.25;;;;;;;17.96;77.66;102331.97;6208963;23;20521;-82
2022/07/07 11:11:06;;;;;;;4.57;1.40;;;;;;;18.05;79.12;102339.22;6209228;23;20028;-81
2022/07/07 11:13:37;;;;;;;5.30;1.75;;;;;;;18.37;79.19;102333.03;6208432;23;20005;-81
2022/07/07 11:16:06;;;;;;;6.63;2.00;;;;;;;18.54;77.08;102340.47;6209584;23;20005;-80
2022/07/07 11:18:34;;;;;;;7.80;2.15;;;;;;;18.77;76.74;102339.41;6209348;23;20020;-86
2022/07/07 11:21:01;;;;;;;9.05;1.83;;;;;;;18.98;74.58;102338.56;6209526;23;20001;-86
2022/07/07 11:23:47;;;;;;;7.35;1.85;;;;;;;18.96;73.34;102335.19;6208966;23;20032;-84
2022/07/07 11:26:18;;;;;;;7.63;2.13;;;;;;;18.68;73.86;102348.19;6210090;23;20338;-84
2022/07/07 11:28:43;;;;;;;7.88;2.00;;;;;;;18.60;75.83;102358.63;6210668;23;20430;-84
2022/07/07 11:31:09;;;;;;;5.07;1.90;;;;;;;18.44;77.18;102360.88;6209373;23;20023;-82
2022/07/07 11:33:35;;;;;;;7.18;1.80;;;;;;;18.20;78.71;102357.56;6209496;23;20084;-83
2022/07/07 11:36:19;;;;;;;6.30;2.05;;;;;;;18.08;79.89;102376.25;6210002;23;20032;-82
2022/07/07 11:38:46;;;;;;;8.23;2.05;;;;;;;18.07;80.71;102377.22;6208851;23;20095;-82
2022/07/07 11:41:12;;;;;;;7.65;1.77;;;;;;;18.00;80.33;102378.69;6210771;23;20040;-83
2022/07/07 11:43:38;;;;;;;6.20;1.80;;;;;;;18.02;79.22;102371.44;6211012;23;20415;-84
2022/07/07 11:46:04;;;;;;;6.35;1.50;;;;;;;18.03;79.89;102382.94;6210176;23;20438;-82
2022/07/07 11:48:41;;;;;;;6.13;1.80;;;;;;;18.08;78.75;102378.94;6209233;23;20011;-82
2022/07/07 11:51:06;;;;;;;4.35;1.40;;;;;;;18.13;79.37;102374.06;6213592;23;20054;-81
2022/07/07 11:53:34;;;;;;;5.70;1.80;;;;;;;18.28;78.69;102376.44;6211408;23;20462;-83
2022/07/07 11:56:00;;;;;;;7.82;2.20;;;;;;;18.35;78.64;102377.63;6211906;23;20342;-84
2022/07/07 11:58:25;;;;;;;9.07;2.05;;;;;;;18.32;78.10;102384.03;6211285;23;20544;-83
2022/07/07 12:00:54;;;;;;;6.50;1.85;;;;;;;18.26;78.45;102391.69;6212634;23;20075;-82
2022/07/07 12:03:27;;;;;;;7.40;1.80;;;;;;;18.23;78.05;102398.13;6210950;23;20210;-83
2022/07/07 12:05:53;;;;;;;8.65;1.80;;;;;;;18.15;77.99;102393.44;6212509;23;20000;-83
2022/07/07 12:08:19;;;;;;;4.78;1.70;;;;;;;18.20;78.50;102384.22;6235190;23;20013;-83
2022/07/07 12:10:52;;;;;;;6.72;1.90;;;;;;;18.30;77.09;102396.66;6211992;23;20011;-83
2022/07/07 12:13:18;;;;;;;4.15;1.60;;;;;;;18.48;77.70;102389.81;6211776;23;20047;-84
2022/07/07 12:15:49;;;;;;;7.65;2.05;;;;;;;18.71;75.80;102395.91;6211949;23;20099;-89
2022/07/07 12:18:31;;;;;;;7.05;1.63;;;;;;;18.81;73.75;102384.47;6210374;23;20009;-84
2022/07/07 12:21:03;;;;;;;6.88;1.52;;;;;;;19.00;74.03;102388.13;6211627;23;20001;-85
2022/07/07 12:23:30;;;;;;;6.35;1.70;;;;;;;19.25;71.99;102384.22;6208933;23;20039;-87
2022/07/07 12:27:08;;;;;;;;;;;;;;;;;;;;;
2022/07/07 12:29:29;;;;;;;6.75;1.83;;;;;;;19.70;69.20;102391.91;6203313;23;20036;-88
2022/07/07 12:31:55;;;;;;;7.63;1.90;;;;;;;19.77;67.64;102398.38;6209050;23;20012;-88
2022/07/07 12:34:42;;;;;;;8.10;1.73;;;;;;;19.86;67.58;102397.56;6233884;23;20020;-86
2022/07/07 12:37:12;;;;;;;6.80;1.50;;;;;;;19.82;67.08;102403.31;6211322;23;20012;-86
2022/07/07 12:39:37;;;;;;;7.40;1.38;;;;;;;19.92;66.26;102407.72;6212016;23;20008;-86
2022/07/07 12:42:02;;;;;;;5.50;1.42;;;;;;;19.99;65.09;102399.97;6211413;23;20008;-85
2022/07/07 12:45:32;;;;;;;4.13;1.20;;;;;;;20.15;65.50;102405.66;6206414;23;20685;-84
2022/07/07 12:47:56;;;;;;;3.85;1.20;;;;;;;20.20;63.08;102402.56;6192393;23;20382;-86
2022/07/07 12:50:23;;;;;;;3.40;1.13;;;;;;;20.27;63.46;102401.03;6210560;23;20084;-83
2022/07/07 12:53:02;;;;;;;3.47;1.05;;;;;;;20.52;64.51;102408.56;6211002;23;20008;-86
2022/07/07 12:55:44;;;;;;;4.00;1.13;;;;;;;20.60;63.00;102408.69;6234345;23;20471;-83
2022/07/07 12:58:13;;;;;;;7.20;1.23;;;;;;;20.50;62.82;102420.38;6210404;23;20005;-85
2022/07/07 13:00:42;;;;;;;3.08;1.02;;;;;;;20.37;64.73;102431.28;6209338;23;20004;-83
2022/07/07 13:03:08;;;;;;;5.45;1.38;;;;;;;20.38;64.40;102416.94;6208899;23;20078;-83
2022/07/07 13:05:34;;;;;;;5.60;1.50;;;;;;;20.75;63.25;102419.81;6234642;23;20000;-82
2022/07/07 13:08:00;;;;;;;6.95;1.60;;;;;;;21.21;63.16;102416.38;6214611;23;20031;-82
2022/07/07 13:10:26;;;;;;;4.72;1.20;;;;;;;21.37;61.13;102414.97;6209906;23;20016;-82
2022/07/07 13:12:54;;;;;;;3.78;1.17;;;;;;;21.63;61.24;102431.25;6211398;23;20004;-82
2022/07/07 13:15:20;;;;;;;4.20;1.10;;;;;;;21.59;60.43;102431.50;6235190;23;20009;-83
2022/07/07 13:17:46;;;;;;;3.47;1.20;;;;;;;21.41;60.58;102437.78;6209989;23;20005;-82
2022/07/07 13:20:12;;;;;;;4.13;1.40;;;;;;;21.11;61.33;102453.03;6211490;23;20485;-82
2022/07/07 13:22:39;;;;;;;6.43;1.40;;;;;;;20.65;62.44;102467.13;6208924;23;20005;-82
2022/07/07 13:25:06;;;;;;;7.80;1.52;;;;;;;20.27;61.68;102462.53;6211553;23;20011;-83
2022/07/07 13:27:35;;;;;;;7.80;1.95;;;;;;;20.15;61.26;102458.28;6210033;23;20027;-82
2022/07/07 13:30:01;;;;;;;6.47;1.42;;;;;;;20.09;61.47;102469.50;6213256;23;20005;-82
2022/07/07 13:32:26;;;;;;;7.22;1.80;;;;;;;19.99;61.12;102475.66;6240704;23;20085;-83
2022/07/07 13:34:52;;;;;;;6.93;1.42;;;;;;;19.98;60.13;102473.13;6214079;23;20098;-83
2022/07/07 13:37:17;;;;;;;10.57;2.28;;;;;;;20.08;60.18;102475.84;6240801;23;20079;-85
2022/07/07 13:39:43;;;;;;;10.35;2.25;;;;;;;20.18;59.07;102482.06;6242024;23;20414;-84
2022/07/07 13:42:10;;;;;;;9.38;2.17;;;;;;;20.06;60.38;102486.66;6241848;23;20004;-83
2022/07/07 13:44:36;;;;;;;9.15;2.67;;;;;;;19.95;59.90;102487.59;6241303;23;20498;-83
2022/07/07 13:47:02;;;;;;;8.75;2.80;;;;;;;19.93;60.75;102486.88;6213812;23;20016;-84
2022/07/07 13:49:27;;;;;;;9.85;2.83;;;;;;;20.28;60.89;102489.13;6240332;23;20046;-84
2022/07/07 13:51:53;;;;;;;11.85;2.50;;;;;;;20.70;59.76;102491.63;6241918;23;20000;-81
2022/07/07 13:54:19;;;;;;;9.70;2.97;;;;;;;20.88;58.68;102499.81;6240575;23;20011;-83
2022/07/07 13:56:44;;;;;;;13.63;2.45;;;;;;;20.84;58.36;102488.56;6242174;23;20004;-84
2022/07/07 13:59:10;;;;;;;8.57;2.55;;;;;;;20.94;58.46;102491.22;6242608;23;20039;-84
2022/07/07 14:01:37;;;;;;;8.82;2.30;;;;;;;21.00;57.24;102503.19;6241619;23;20288;-81
2022/07/07 14:04:02;;;;;;;8.15;1.95;;;;;;;20.78;57.44;102498.94;6240235;23;20010;-79
2022/07/07 14:06:28;;;;;;;11.07;2.28;;;;;;;20.62;56.09;102500.34;6240820;23;20078;-83
2022/07/07 14:08:54;;;;;;;6.88;1.85;;;;;;;20.68;54.72;102506.13;6213450;23;20008;-81
2022/07/07 14:11:25;;;;;;;9.00;2.40;;;;;;;20.57;55.03;102507.94;6214060;23;20031;-80
2022/07/07 14:13:51;;;;;;;11.30;2.15;;;;;;;20.48;56.06;102495.41;6215195;23;20008;-81
2022/07/07 14:16:19;;;;;;;8.88;2.15;;;;;;;20.46;55.07;102505.38;6247623;23;20004;-82
2022/07/07 14:18:48;;;;;;;11.07;2.20;;;;;;;20.46;55.28;102505.38;6250389;23;20008;-81
2022/07/07 14:21:13;;;;;;;9.95;2.20;;;;;;;20.41;55.07;102501.41;6225128;23;20027;-82
2022/07/07 14:23:39;;;;;;;12.95;2.42;;;;;;;20.52;55.60;102510.19;6250420;23;20011;-82
2022/07/07 14:26:30;;;;;;;11.63;2.45;;;;;;;20.42;55.19;102517.34;6252650;23;20000;-81
2022/07/07 14:28:55;;;;;;;9.88;2.25;;;;;;;20.04;55.47;102512.69;6250999;23;20011;-82
2022/07/07 14:31:20;;;;;;;12.93;2.78;;;;;;;19.98;56.25;102507.84;6248457;23;20241;-81
2022/07/07 14:33:47;;;;;;;10.80;2.83;;;;;;;19.87;56.85;102514.13;6250786;23;20007;-81
2022/07/07 14:36:12;;;;;;;14.98;3.35;;;;;;;19.75;57.00;102515.22;6252931;23;20012;-81
2022/07/07 14:38:38;;;;;;;16.45;2.97;;;;;;;19.76;56.38;102516.91;6251734;23;20004;-82
2022/07/07 14:41:04;;;;;;;15.25;3.15;;;;;;;19.80;55.42;102533.50;6243943;23;20426;-82
2022/07/07 14:43:30;;;;;;;14.18;3.28;;;;;;;20.05;54.78;102516.19;6241503;23;20004;-81
2022/07/07 14:45:55;;;;;;;21.60;3.72;;;;;;;20.51;53.97;102524.53;6241929;23;20011;-84
2022/07/07 14:48:21;;;;;;;14.82;3.13;;;;;;;20.87;53.71;102525.72;6241192;23;20315;-82